Time;durP1;ratioP1;P1;durP2;ratioP2;P2;SDS_P1;SDS_P2;PMS_P1;PMS_P2;Temp;Humidity;BMP_temperature;BMP_pressure;BME280_temperature;BME280_humidity;BME280_pressure;Samples;Min_cycle;Max_cycle;Signal;HPM_P1;HPM_P2
2023/05/07 00:00:18;;;;;;;11.18;5.60;;;;;;;13.25;99.71;100739.66;5052375;28;20405;-77
2023/05/07 00:02:45;;;;;;;9.80;5.68;;;;;;;13.35;100.00;100758.09;5051773;28;20124;-76
2023/05/07 00:05:10;;;;;;;7.85;5.40;;;;;;;12.82;100.00;100683.03;5051277;28;20013;-77
2023/05/07 00:07:36;;;;;;;8.40;5.18;;;;;;;13.36;100.00;100759.88;5052070;28;20081;-77
2023/05/07 00:10:02;;;;;;;8.45;5.45;;;;;;;13.13;100.00;100747.06;5051802;28;20049;-78
2023/05/07 00:12:31;;;;;;;9.10;5.22;;;;;;;13.18;100.00;100757.56;5052136;28;20020;-77
2023/05/07 00:14:57;;;;;;;12.35;5.45;;;;;;;13.27;100.00;100752.66;5051891;28;20021;-77
2023/05/07 00:17:22;;;;;;;10.52;5.72;;;;;;;13.24;99.68;100722.34;5052078;28;20174;-77
2023/05/07 00:19:48;;;;;;;7.75;5.00;;;;;;;13.27;97.23;100719.84;5051851;28;20024;-78
2023/05/07 00:22:13;;;;;;;12.27;5.40;;;;;;;13.46;96.99;100748.06;5051697;28;20021;-79
2023/05/07 00:24:39;;;;;;;7.68;5.20;;;;;;;12.93;96.06;100630.72;5051551;28;20100;-77
2023/05/07 00:27:05;;;;;;;8.18;5.00;;;;;;;13.49;94.98;100720.50;5051786;28;20499;-77
2023/05/07 00:29:30;;;;;;;10.43;5.00;;;;;;;13.13;94.08;100663.25;5051666;28;20024;-81
2023/05/07 00:31:56;;;;;;;6.95;5.47;;;;;;;13.59;94.47;100726.84;5051669;28;20017;-77
2023/05/07 00:34:22;;;;;;;9.40;5.85;;;;;;;13.66;93.60;100733.09;5056945;28;20115;-77
2023/05/07 00:36:47;;;;;;;10.02;5.55;;;;;;;13.16;93.63;100646.06;5066608;28;20025;-80
2023/05/07 00:39:13;;;;;;;9.63;5.53;;;;;;;13.60;93.29;100733.78;5051226;28;20025;-78
2023/05/07 00:41:38;;;;;;;12.85;5.88;;;;;;;13.60;92.99;100723.41;5051094;28;20485;-79
2023/05/07 00:44:04;;;;;;;6.50;4.65;;;;;;;13.56;94.18;100731.97;5051139;28;20036;-79
2023/05/07 00:46:30;;;;;;;7.03;4.80;;;;;;;13.06;94.49;100657.88;5051004;28;20042;-78
2023/05/07 00:48:56;;;;;;;9.32;5.03;;;;;;;13.44;93.30;100732.47;5051226;28;20028;-77
2023/05/07 00:51:25;;;;;;;10.40;5.30;;;;;;;13.35;93.91;100734.78;5050698;28;20055;-76
2023/05/07 00:53:50;;;;;;;10.80;5.90;;;;;;;13.36;94.29;100733.94;5051053;28;20024;-76
2023/05/07 00:56:16;;;;;;;7.53;5.10;;;;;;;13.29;94.89;100738.03;5050690;28;20036;-76
2023/05/07 00:58:42;;;;;;;10.40;5.43;;;;;;;12.88;94.13;100688.41;5050764;28;20027;-76
2023/05/07 01:01:07;;;;;;;10.85;5.28;;;;;;;13.00;94.23;100731.97;5050965;28;20104;-80
2023/05/07 01:03:33;;;;;;;10.68;5.50;;;;;;;12.77;94.98;100740.78;5050765;28;20029;-77
2023/05/07 01:06:01;;;;;;;10.60;6.13;;;;;;;12.43;95.29;100737.06;5050196;28;20017;-77
2023/05/07 01:08:29;;;;;;;9.20;5.60;;;;;;;12.16;97.20;100736.13;5050637;28;20095;-78
2023/05/07 01:10:57;;;;;;;8.77;6.05;;;;;;;12.07;99.99;100734.09;5050644;28;20338;-78
2023/05/07 01:13:24;;;;;;;8.63;6.47;;;;;;;11.62;100.00;100645.41;5050770;28;20155;-78
2023/05/07 01:15:49;;;;;;;11.02;6.50;;;;;;;12.16;100.00;100729.22;5050517;28;20425;-77
2023/05/07 01:18:15;;;;;;;10.63;5.72;;;;;;;12.26;100.00;100726.16;5050717;28;20028;-78
2023/05/07 01:20:41;;;;;;;9.43;5.93;;;;;;;12.18;100.00;100721.53;5050457;28;20025;-77
2023/05/07 01:23:07;;;;;;;10.88;6.55;;;;;;;12.21;100.00;100724.22;5050420;28;20082;-83
2023/05/07 01:25:33;;;;;;;9.30;6.15;;;;;;;12.26;100.00;100744.28;5050305;28;20029;-78
2023/05/07 01:28:02;;;;;;;10.98;6.50;;;;;;;12.17;99.35;100707.69;5050622;28;20459;-78
2023/05/07 01:30:28;;;;;;;9.63;5.73;;;;;;;12.32;99.50;100728.06;5050681;28;20017;-77
2023/05/07 01:33:09;;;;;;;9.95;6.28;;;;;;;11.73;99.08;100643.22;5050343;28;20264;-78
2023/05/07 01:35:38;;;;;;;10.73;6.13;;;;;;;12.01;99.24;100701.09;5050447;28;20071;-76
2023/05/07 01:38:05;;;;;;;8.75;5.82;;;;;;;12.27;98.98;100737.38;5050200;28;20572;-79
2023/05/07 01:40:31;;;;;;;9.63;6.50;;;;;;;12.31;97.74;100731.47;5050137;28;20040;-77
2023/05/07 01:42:57;;;;;;;11.10;6.25;;;;;;;12.27;96.64;100727.03;5050353;28;20021;-78
2023/05/07 01:45:23;;;;;;;10.55;6.07;;;;;;;12.42;97.30;100737.91;5049943;28;20021;-78
2023/05/07 01:47:50;;;;;;;10.38;6.55;;;;;;;12.37;95.94;100713.53;5050034;28;20031;-81
2023/05/07 01:50:18;;;;;;;12.52;6.65;;;;;;;12.41;95.24;100723.19;5049995;28;20024;-77
2023/05/07 01:52:43;;;;;;;10.15;5.88;;;;;;;12.36;95.13;100717.00;5032191;28;20029;-81
2023/05/07 01:55:09;;;;;;;11.63;6.22;;;;;;;11.72;95.69;100658.69;5050572;28;20032;-79
2023/05/07 01:57:35;;;;;;;10.07;5.90;;;;;;;12.00;97.07;100708.81;5050499;28;20082;-78
2023/05/07 02:00:00;;;;;;;9.45;6.05;;;;;;;12.14;96.26;100733.50;5049814;28;20426;-78
2023/05/07 02:02:26;;;;;;;9.82;6.03;;;;;;;12.10;nan;100737.69;5050074;28;20032;-77
2023/05/07 02:04:51;;;;;;;9.07;6.07;;;;;;;11.42;97.56;100641.25;5050097;28;20025;-78
2023/05/07 02:07:17;;;;;;;10.35;6.13;;;;;;;11.75;98.84;100710.50;5050242;28;20024;-77
2023/05/07 02:09:42;;;;;;;9.48;6.00;;;;;;;11.95;98.75;100721.56;5049997;28;20108;-77
2023/05/07 02:12:07;;;;;;;8.15;5.80;;;;;;;11.87;98.43;100712.66;5049873;28;20463;-79
2023/05/07 02:14:33;;;;;;;9.32;6.50;;;;;;;11.31;97.95;100690.84;5050097;28;20017;-77
2023/05/07 02:16:58;;;;;;;9.45;6.95;;;;;;;11.35;99.75;100711.63;5049841;28;20028;-78
2023/05/07 02:19:24;;;;;;;10.68;6.75;;;;;;;11.46;98.79;100710.31;5050120;28;20043;-79
2023/05/07 02:21:50;;;;;;;9.20;6.82;;;;;;;11.50;98.31;100712.19;5049897;28;20028;-78
2023/05/07 02:24:15;;;;;;;9.32;6.38;;;;;;;11.51;98.30;100707.91;5049533;28;20146;-78
2023/05/07 02:26:41;;;;;;;8.05;5.70;;;;;;;11.62;97.69;100722.13;5050073;28;20025;-78
2023/05/07 02:29:06;;;;;;;8.68;6.22;;;;;;;11.41;97.07;100673.97;5053826;28;20028;-77
2023/05/07 02:31:33;;;;;;;9.63;5.68;;;;;;;11.62;96.42;100691.97;5053713;28;20472;-77
2023/05/07 02:34:00;;;;;;;9.20;6.13;;;;;;;11.78;96.50;100697.69;5045318;28;20396;-78
2023/05/07 02:36:26;;;;;;;10.73;7.20;;;;;;;11.48;99.59;100652.69;5053704;28;20056;-78
2023/05/07 02:38:52;;;;;;;8.98;6.40;;;;;;;11.35;99.80;100637.53;5053655;28;20059;-77
2023/05/07 02:41:17;;;;;;;10.20;7.20;;;;;;;11.21;99.35;100647.38;5035542;28;20464;-77
2023/05/07 02:43:43;;;;;;;11.18;7.28;;;;;;;11.58;100.00;100708.19;5053287;28;20029;-79
2023/05/07 02:46:09;;;;;;;11.98;7.40;;;;;;;11.43;100.00;100705.06;5053358;28;20451;-78
2023/05/07 02:48:34;;;;;;;13.63;7.68;;;;;;;11.08;100.00;100702.91;5053357;28;20021;-78
2023/05/07 02:51:00;;;;;;;12.60;7.60;;;;;;;10.31;100.00;100633.56;5053473;28;20393;-78
2023/05/07 02:53:27;;;;;;;11.75;7.85;;;;;;;10.15;100.00;100626.88;5053601;28;20036;-78
2023/05/07 02:55:53;;;;;;;11.63;7.43;;;;;;;10.60;100.00;100693.25;5053213;28;20021;-77
2023/05/07 02:58:19;;;;;;;9.52;7.18;;;;;;;10.35;100.00;100699.09;5054152;28;20032;-77
2023/05/07 03:00:45;;;;;;;12.55;7.60;;;;;;;10.18;100.00;100667.41;5067581;28;20028;-78
2023/05/07 03:03:10;;;;;;;11.35;7.93;;;;;;;10.63;100.00;100724.38;5054854;28;20028;-80
2023/05/07 03:05:36;;;;;;;10.48;7.05;;;;;;;10.61;100.00;100705.34;5072856;28;20027;-79
2023/05/07 03:08:01;;;;;;;13.80;7.80;;;;;;;10.77;100.00;100703.41;5072977;28;20059;-78
2023/05/07 03:10:27;;;;;;;10.02;7.30;;;;;;;10.81;100.00;100700.97;5054688;28;20032;-79
2023/05/07 03:12:52;;;;;;;10.00;7.00;;;;;;;10.61;100.00;100658.00;5034736;28;20021;-79
2023/05/07 03:15:18;;;;;;;11.20;6.60;;;;;;;11.11;100.00;100718.50;5052967;28;20023;-77
2023/05/07 03:17:43;;;;;;;10.38;6.70;;;;;;;10.98;100.00;100691.31;5052836;28;20029;-81
2023/05/07 03:20:09;;;;;;;12.98;6.57;;;;;;;11.02;100.00;100733.66;5052528;28;20021;-78
2023/05/07 03:22:35;;;;;;;10.30;6.72;;;;;;;10.88;100.00;100714.13;5033471;28;20044;-79
2023/05/07 03:25:00;;;;;;;10.45;5.93;;;;;;;10.83;100.00;100698.47;5034881;28;20525;-78
2023/05/07 03:27:26;;;;;;;7.68;5.95;;;;;;;10.99;100.00;100730.94;5063827;28;20117;-78
2023/05/07 03:29:51;;;;;;;10.82;6.22;;;;;;;11.03;100.00;100727.66;5054370;28;20458;-78
2023/05/07 03:32:16;;;;;;;9.68;5.93;;;;;;;10.83;100.00;100709.69;5072246;28;20043;-76
2023/05/07 03:34:42;;;;;;;8.35;5.78;;;;;;;10.94;99.54;100735.94;5060971;28;20049;-76
2023/05/07 03:37:07;;;;;;;8.07;5.32;;;;;;;10.77;99.19;100722.34;5064574;28;20036;-80
2023/05/07 03:39:33;;;;;;;8.23;5.82;;;;;;;10.65;99.51;100706.34;5068668;28;20012;-78
2023/05/07 03:41:58;;;;;;;7.95;5.63;;;;;;;10.08;100.00;100635.22;5059578;28;20108;-77
2023/05/07 03:44:23;;;;;;;12.65;5.80;;;;;;;10.83;100.00;100739.81;5065920;28;20146;-76
2023/05/07 03:46:49;;;;;;;11.10;6.35;;;;;;;10.71;100.00;100718.66;5061088;28;20017;-79
2023/05/07 03:49:14;;;;;;;12.77;6.82;;;;;;;10.68;100.00;100742.66;5061725;28;20029;-80
2023/05/07 03:51:40;;;;;;;9.23;6.47;;;;;;;10.72;100.00;100735.91;5062155;28;20048;-78
2023/05/07 03:54:05;;;;;;;9.60;6.72;;;;;;;10.80;100.00;100748.31;5062323;28;20397;-78
2023/05/07 03:56:31;;;;;;;10.52;6.70;;;;;;;10.71;100.00;100741.88;5060772;28;20021;-79
2023/05/07 03:58:56;;;;;;;11.68;7.47;;;;;;;10.78;100.00;100754.19;5043370;28;20029;-77
2023/05/07 04:01:22;;;;;;;9.38;6.18;;;;;;;10.74;100.00;100753.22;5061497;28;20512;-78
2023/05/07 04:03:47;;;;;;;7.75;5.97;;;;;;;10.73;100.00;100746.28;5065086;28;20386;-81
2023/05/07 04:06:13;;;;;;;11.60;6.35;;;;;;;10.80;100.00;100747.41;5068634;28;20019;-76
2023/05/07 04:08:38;;;;;;;9.07;6.20;;;;;;;10.87;100.00;100766.63;5068224;28;20012;-77
2023/05/07 04:11:03;;;;;;;9.40;7.47;;;;;;;10.99;100.00;100761.94;5068057;28;20020;-77
2023/05/07 04:13:30;;;;;;;8.98;6.85;;;;;;;11.07;100.00;100768.31;5068133;28;20016;-78
2023/05/07 04:15:56;;;;;;;11.32;6.95;;;;;;;11.10;100.00;100770.13;5067533;28;20028;-80
2023/05/07 04:18:21;;;;;;;11.30;7.15;;;;;;;11.10;100.00;100754.63;5071758;28;20090;-77
2023/05/07 04:20:49;;;;;;;14.77;7.60;;;;;;;11.23;100.00;100756.00;5070696;28;20467;-78
2023/05/07 04:23:14;;;;;;;11.27;6.95;;;;;;;11.33;100.00;100769.31;5071435;28;20086;-75
2023/05/07 04:25:40;;;;;;;10.65;6.82;;;;;;;11.32;100.00;100771.84;5065089;28;20017;-81
2023/05/07 04:28:05;;;;;;;12.13;8.02;;;;;;;11.35;100.00;100766.78;5071674;28;20028;-77
2023/05/07 04:30:31;;;;;;;10.40;7.85;;;;;;;11.09;100.00;100702.06;5071523;28;20016;-76
2023/05/07 04:32:56;;;;;;;12.00;7.40;;;;;;;11.47;100.00;100763.81;5071487;28;20021;-76
2023/05/07 04:35:22;;;;;;;10.77;7.55;;;;;;;11.54;100.00;100770.06;5069611;28;20037;-78
2023/05/07 04:37:47;;;;;;;12.43;7.32;;;;;;;11.50;100.00;100769.06;5071657;28;20368;-77
2023/05/07 04:40:13;;;;;;;13.88;8.13;;;;;;;11.31;100.00;100760.66;5070422;28;20459;-76
2023/05/07 04:42:39;;;;;;;10.75;7.90;;;;;;;11.42;100.00;100771.38;5071432;28;20051;-77
2023/05/07 04:45:05;;;;;;;9.70;7.30;;;;;;;11.04;100.00;100710.47;5071210;28;20605;-79
2023/05/07 04:47:30;;;;;;;11.00;7.75;;;;;;;11.41;100.00;100779.94;5071057;28;20401;-77
2023/05/07 04:49:57;;;;;;;17.08;7.80;;;;;;;11.44;100.00;100779.19;5052096;28;20024;-78
2023/05/07 04:52:23;;;;;;;12.48;7.70;;;;;;;11.53;100.00;100781.28;5064228;28;20454;-77
2023/05/07 04:54:48;;;;;;;15.18;8.75;;;;;;;11.36;100.00;100780.59;5070890;28;20063;-76
2023/05/07 04:57:14;;;;;;;12.50;7.45;;;;;;;11.45;100.00;100788.72;5070712;28;20029;-77
2023/05/07 04:59:39;;;;;;;13.43;7.82;;;;;;;11.52;100.00;100789.84;5070914;28;20478;-76
2023/05/07 05:02:05;;;;;;;12.73;8.43;;;;;;;11.62;100.00;100789.34;5070793;28;20025;-79
2023/05/07 05:04:30;;;;;;;11.73;7.93;;;;;;;11.69;100.00;100793.94;5070800;28;20029;-74
2023/05/07 05:06:56;;;;;;;13.40;7.47;;;;;;;11.76;100.00;100797.63;5064169;28;20029;-75
2023/05/07 05:09:21;;;;;;;12.55;7.63;;;;;;;11.78;100.00;100783.94;5061085;28;20029;-74
2023/05/07 05:11:47;;;;;;;9.65;7.15;;;;;;;11.91;100.00;100794.72;5059639;28;20021;-74
2023/05/07 05:14:12;;;;;;;11.15;8.00;;;;;;;11.87;100.00;100791.16;5042087;28;20455;-76
2023/05/07 05:16:38;;;;;;;13.40;7.55;;;;;;;11.57;100.00;100734.00;5061328;28;20031;-74
2023/05/07 05:19:03;;;;;;;11.02;7.78;;;;;;;11.94;100.00;100774.16;5059449;28;20119;-76
2023/05/07 05:21:29;;;;;;;11.55;7.30;;;;;;;12.00;100.00;100776.09;5060364;28;20178;-74
2023/05/07 05:23:54;;;;;;;11.52;8.18;;;;;;;12.35;100.00;100802.34;5042624;28;20013;-78
2023/05/07 05:26:21;;;;;;;13.65;7.78;;;;;;;12.33;100.00;100789.38;5059186;28;20020;-74
2023/05/07 05:28:46;;;;;;;13.07;7.20;;;;;;;12.52;100.00;100802.94;5060356;28;20091;-74
2023/05/07 05:31:12;;;;;;;11.77;7.75;;;;;;;12.68;100.00;100805.22;5053212;28;20108;-76
2023/05/07 05:33:37;;;;;;;16.42;8.13;;;;;;;12.75;100.00;100794.25;5062027;28;20044;-76
2023/05/07 05:36:03;;;;;;;12.55;7.57;;;;;;;12.79;100.00;100796.09;5061922;28;20037;-78
2023/05/07 05:38:29;;;;;;;12.55;6.95;;;;;;;13.01;100.00;100802.00;5042603;28;20410;-75
2023/05/07 05:40:54;;;;;;;17.73;7.85;;;;;;;13.12;100.00;100810.09;5059678;28;20021;-76
2023/05/07 05:43:20;;;;;;;15.15;7.43;;;;;;;13.22;100.00;100814.78;5041117;28;20017;-75
2023/05/07 05:45:45;;;;;;;16.15;7.55;;;;;;;13.18;100.00;100817.19;5059835;28;20127;-77
2023/05/07 05:48:11;;;;;;;13.75;7.18;;;;;;;13.28;100.00;100821.84;5061823;28;20012;-74
2023/05/07 05:50:36;;;;;;;13.63;6.97;;;;;;;13.32;100.00;100822.81;5059330;28;20095;-76
2023/05/07 05:53:02;;;;;;;11.95;7.00;;;;;;;13.46;100.00;100812.91;5062252;28;20017;-73
2023/05/07 05:55:28;;;;;;;12.77;7.22;;;;;;;13.55;100.00;100824.44;5059094;28;20516;-73
2023/05/07 05:57:53;;;;;;;20.33;7.60;;;;;;;13.60;100.00;100798.66;5063547;28;20025;-74
2023/05/07 06:00:22;;;;;;;10.13;6.50;;;;;;;12.79;100.00;100682.09;5061797;28;20033;-74
2023/05/07 06:02:48;;;;;;;15.40;6.85;;;;;;;13.65;100.00;100816.97;5023890;28;20481;-75
2023/05/07 06:05:13;;;;;;;15.05;6.82;;;;;;;13.81;100.00;100826.09;5007824;28;20041;-75
2023/05/07 06:07:40;;;;;;;11.15;6.80;;;;;;;13.50;100.00;100737.84;5054461;28;20044;-74
2023/05/07 06:10:06;;;;;;;9.75;6.03;;;;;;;14.10;100.00;100823.44;5054293;28;20036;-74
2023/05/07 06:12:32;;;;;;;8.73;6.18;;;;;;;14.03;100.00;100799.91;5053685;28;20471;-75
2023/05/07 06:14:57;;;;;;;13.05;6.70;;;;;;;14.14;100.00;100822.69;5054192;28;20029;-76
2023/05/07 06:17:23;;;;;;;10.60;6.43;;;;;;;14.14;100.00;100797.59;5054055;28;20021;-75
2023/05/07 06:19:48;;;;;;;8.88;5.95;;;;;;;14.44;100.00;100812.22;5036272;28;20060;-75
2023/05/07 06:22:13;;;;;;;10.02;5.80;;;;;;;14.69;100.00;100825.91;5034956;28;20032;-75
2023/05/07 06:24:39;;;;;;;10.68;6.15;;;;;;;14.78;100.00;100831.34;5054119;28;20082;-73
2023/05/07 06:27:04;;;;;;;10.65;5.85;;;;;;;14.76;100.00;100803.56;5053857;28;20108;-74
2023/05/07 06:29:32;;;;;;;11.38;6.30;;;;;;;14.99;100.00;100819.72;5054030;28;20032;-75
2023/05/07 06:32:09;;;;;;;8.27;5.28;;;;;;;15.17;100.00;100827.09;5035918;28;20027;-74
2023/05/07 06:34:35;;;;;;;10.73;5.80;;;;;;;15.17;100.00;100816.69;5053743;28;20056;-74
2023/05/07 06:37:01;;;;;;;10.32;6.00;;;;;;;15.11;100.00;100801.81;5054029;28;20068;-75
2023/05/07 06:39:26;;;;;;;9.88;4.85;;;;;;;15.33;96.60;100836.16;5053709;28;20064;-77
2023/05/07 06:41:52;;;;;;;6.85;3.85;;;;;;;15.42;92.40;100823.34;5053793;28;20029;-74
2023/05/07 06:44:17;;;;;;;7.70;3.47;;;;;;;15.56;88.37;100828.84;5053398;28;20025;-74
2023/05/07 06:46:43;;;;;;;5.22;3.20;;;;;;;15.70;84.30;100818.72;5053611;28;20020;-74
2023/05/07 06:49:08;;;;;;;6.78;3.92;;;;;;;15.79;84.55;100837.16;5053383;28;20021;-73
2023/05/07 06:51:34;;;;;;;7.25;3.42;;;;;;;15.91;84.73;100830.50;5053599;28;20055;-74
2023/05/07 06:54:00;;;;;;;7.40;3.40;;;;;;;16.14;85.73;100828.38;5053450;28;20063;-74
2023/05/07 06:56:25;;;;;;;9.77;3.78;;;;;;;16.24;82.12;100825.09;5053526;28;20017;-74
2023/05/07 06:58:51;;;;;;;10.07;3.80;;;;;;;16.48;81.26;100832.47;5053104;28;20520;-72
2023/05/07 07:01:16;;;;;;;7.57;3.67;;;;;;;16.57;81.84;100833.50;5053820;28;20032;-74
2023/05/07 07:03:41;;;;;;;9.15;3.50;;;;;;;16.59;80.45;100821.41;5060758;28;20506;-73
2023/05/07 07:06:07;;;;;;;10.98;3.85;;;;;;;16.73;78.08;100832.06;5064894;28;20040;-74
2023/05/07 07:08:33;;;;;;;10.85;3.80;;;;;;;16.34;81.62;100763.63;5072131;28;20039;-75
2023/05/07 07:10:58;;;;;;;9.43;3.88;;;;;;;16.93;79.75;100835.91;5073276;28;20021;-74
2023/05/07 07:13:23;;;;;;;18.70;4.68;;;;;;;16.79;79.48;100832.16;5054646;28;20040;-79
2023/05/07 07:15:49;;;;;;;13.30;4.03;;;;;;;16.77;78.66;100839.06;5073024;28;20024;-75
2023/05/07 07:18:15;;;;;;;13.20;4.13;;;;;;;16.62;78.99;100816.22;5073186;28;20074;-73
2023/05/07 07:20:40;;;;;;;11.98;4.78;;;;;;;16.84;76.22;100838.34;5073117;28;20020;-78
2023/05/07 07:23:06;;;;;;;20.17;5.28;;;;;;;16.68;76.08;100795.47;5072885;28;20020;-73
2023/05/07 07:25:31;;;;;;;14.90;4.30;;;;;;;17.18;75.08;100844.13;5072783;28;20016;-74
2023/05/07 07:27:57;;;;;;;16.83;4.38;;;;;;;17.28;70.90;100846.06;5072469;28;20028;-73
2023/05/07 07:30:22;;;;;;;12.65;4.43;;;;;;;17.38;67.13;100841.81;5073223;28;20446;-73
2023/05/07 07:32:48;;;;;;;9.55;3.70;;;;;;;17.18;66.71;100807.59;5037041;28;20045;-73
2023/05/07 07:35:13;;;;;;;11.50;4.70;;;;;;;17.50;72.93;100828.09;5072955;28;20145;-73
2023/05/07 07:37:38;;;;;;;20.70;5.35;;;;;;;17.53;69.24;100828.13;5072887;28;20025;-73
2023/05/07 07:40:04;;;;;;;10.00;3.65;;;;;;;17.36;65.95;100775.69;5072696;28;20032;-75
2023/05/07 07:42:30;;;;;;;8.98;3.70;;;;;;;17.77;68.41;100835.41;5072388;28;20371;-73
2023/05/07 07:44:56;;;;;;;7.28;3.35;;;;;;;17.65;67.75;100829.16;5072543;28;20028;-73
2023/05/07 07:47:22;;;;;;;7.85;2.95;;;;;;;17.73;68.84;100832.75;5072347;28;20418;-74
2023/05/07 07:49:48;;;;;;;17.63;4.20;;;;;;;17.66;70.05;100830.91;5072771;28;20119;-73
2023/05/07 07:52:13;;;;;;;18.48;4.90;;;;;;;17.20;68.65;100751.13;5072274;28;20094;-73
2023/05/07 07:54:38;;;;;;;13.70;3.40;;;;;;;17.29;70.81;100774.72;5072396;28;20020;-73
2023/05/07 07:57:04;;;;;;;10.52;3.58;;;;;;;17.67;67.55;100824.81;5072069;28;20032;-74
2023/05/07 07:59:29;;;;;;;13.23;3.33;;;;;;;17.92;63.72;100820.81;5072279;28;20475;-73
2023/05/07 08:01:56;;;;;;;4.50;2.70;;;;;;;18.31;62.40;100830.00;5072193;28;20356;-73
2023/05/07 08:04:22;;;;;;;11.75;4.05;;;;;;;18.45;62.75;100832.75;5072178;28;20017;-74
2023/05/07 08:06:49;;;;;;;6.50;3.10;;;;;;;18.47;62.78;100832.75;5072006;28;20090;-73
2023/05/07 08:09:14;;;;;;;6.93;2.40;;;;;;;18.45;62.80;100832.75;5071827;28;20070;-72
2023/05/07 08:11:40;;;;;;;4.63;2.20;;;;;;;18.52;62.70;100829.34;5072031;28;20024;-73
2023/05/07 08:14:06;;;;;;;5.95;2.35;;;;;;;18.46;63.60;100829.28;5071990;28;20039;-75
2023/05/07 08:16:31;;;;;;;5.88;2.42;;;;;;;18.47;62.66;100835.38;5071931;28;20031;-74
2023/05/07 08:18:56;;;;;;;6.30;2.45;;;;;;;18.53;61.28;100825.88;5066912;28;20044;-74
2023/05/07 08:21:22;;;;;;;5.93;1.95;;;;;;;18.66;61.71;100833.84;5071778;28;20025;-74
2023/05/07 08:23:48;;;;;;;5.95;2.53;;;;;;;18.69;61.04;100807.69;5035972;28;20032;-74
2023/05/07 08:26:16;;;;;;;6.25;2.60;;;;;;;19.02;57.96;100833.31;5070942;28;20029;-72
2023/05/07 08:28:41;;;;;;;9.10;2.45;;;;;;;18.73;58.74;100757.19;5071846;28;20024;-72
2023/05/07 08:31:07;;;;;;;4.03;2.10;;;;;;;19.24;60.13;100833.50;5071819;28;20043;-78
2023/05/07 08:33:32;;;;;;;5.97;2.30;;;;;;;18.66;57.83;100732.72;5071713;28;20135;-73
2023/05/07 08:35:58;;;;;;;5.38;2.13;;;;;;;19.21;55.54;100821.22;5071605;28;20098;-76
2023/05/07 08:38:24;;;;;;;5.82;1.85;;;;;;;19.19;53.96;100824.69;5071285;28;20035;-73
2023/05/07 08:40:50;;;;;;;4.75;1.90;;;;;;;19.14;52.99;100811.59;5071279;28;20079;-73
2023/05/07 08:43:16;;;;;;;4.85;2.13;;;;;;;19.24;58.19;100820.41;5071527;28;20391;-73
2023/05/07 08:45:45;;;;;;;6.72;1.90;;;;;;;19.41;54.02;100810.00;5071119;28;20028;-72
2023/05/07 08:48:17;;;;;;;4.37;2.30;;;;;;;19.46;56.93;100795.19;5071426;28;20016;-73
2023/05/07 08:50:43;;;;;;;9.68;2.30;;;;;;;19.16;53.51;100728.72;5070928;28;20654;-73
2023/05/07 08:53:08;;;;;;;3.60;1.85;;;;;;;19.70;56.32;100810.19;5071362;28;20016;-77
2023/05/07 08:55:34;;;;;;;19.75;3.83;;;;;;;19.70;54.69;100797.09;5066508;28;20020;-73
2023/05/07 08:58:01;;;;;;;11.52;2.53;;;;;;;19.81;52.17;100789.28;5053422;28;20436;-73
2023/05/07 09:00:26;;;;;;;8.32;2.10;;;;;;;20.03;52.13;100802.47;5052079;28;20044;-74
2023/05/07 09:02:53;;;;;;;6.13;2.20;;;;;;;20.15;53.91;100805.13;5071152;28;20028;-72
2023/05/07 09:05:19;;;;;;;5.70;2.08;;;;;;;20.35;53.41;100806.94;5071033;28;20023;-73
2023/05/07 09:07:45;;;;;;;5.88;2.13;;;;;;;20.30;50.62;100770.22;5070895;28;20028;-73
2023/05/07 09:10:11;;;;;;;6.57;1.98;;;;;;;20.55;51.14;100795.59;5071273;28;20024;-73
2023/05/07 09:12:36;;;;;;;4.70;1.77;;;;;;;20.67;51.89;100792.97;5071056;28;20036;-73
2023/05/07 09:15:02;;;;;;;4.22;2.17;;;;;;;20.68;49.29;100786.84;5071068;28;20074;-73
2023/05/07 09:17:29;;;;;;;14.70;3.00;;;;;;;20.81;52.85;100787.75;5070833;28;20394;-72
2023/05/07 09:19:55;;;;;;;4.10;1.88;;;;;;;20.88;49.03;100784.25;5070717;28;20024;-73
2023/05/07 09:22:20;;;;;;;6.35;1.83;;;;;;;20.65;51.16;100748.38;5052826;28;20036;-73
2023/05/07 09:24:50;;;;;;;3.97;1.55;;;;;;;21.05;48.10;100783.34;5071188;28;20033;-73
2023/05/07 09:27:17;;;;;;;8.13;2.30;;;;;;;21.10;50.60;100785.13;5070559;28;20048;-73
2023/05/07 09:29:43;;;;;;;3.08;1.77;;;;;;;21.17;48.07;100778.97;5071013;28;20024;-76
2023/05/07 09:32:09;;;;;;;5.80;2.25;;;;;;;20.98;48.97;100780.75;5070248;28;20050;-73
2023/05/07 09:34:34;;;;;;;4.25;1.95;;;;;;;21.14;49.36;100772.88;5070587;28;20486;-73
2023/05/07 09:37:04;;;;;;;20.52;4.80;;;;;;;21.19;45.20;100765.00;5052549;28;20020;-78
2023/05/07 09:39:40;;;;;;;9.40;2.80;;;;;;;21.26;50.96;100758.81;5070839;28;20024;-73
2023/05/07 09:42:06;;;;;;;2.75;1.60;;;;;;;21.37;47.92;100753.53;5070331;28;20462;-72
2023/05/07 09:44:32;;;;;;;3.60;1.88;;;;;;;21.52;47.03;100753.50;5070545;28;20036;-73
2023/05/07 09:47:00;;;;;;;4.35;1.60;;;;;;;21.60;46.12;100746.50;5070487;28;20043;-73
2023/05/07 09:49:32;;;;;;;4.88;1.90;;;;;;;21.70;48.11;100739.44;5070573;28;20100;-73
2023/05/07 09:52:00;;;;;;;5.78;2.13;;;;;;;21.56;48.42;100704.47;5070515;28;20024;-72
2023/05/07 09:54:29;;;;;;;4.82;1.70;;;;;;;21.80;46.91;100733.25;5070421;28;20029;-72
2023/05/07 09:56:55;;;;;;;11.00;2.95;;;;;;;21.87;52.50;100734.09;5017603;28;20082;-73
2023/05/07 09:59:24;;;;;;;9.23;2.38;;;;;;;21.97;46.73;100721.78;5069687;28;20055;-73
2023/05/07 10:01:52;;;;;;;3.72;1.45;;;;;;;21.89;44.05;100723.56;5065771;28;20359;-72
2023/05/07 10:04:19;;;;;;;7.72;2.35;;;;;;;21.92;43.40;100729.69;5066734;28;20040;-72
2023/05/07 10:06:45;;;;;;;6.65;2.20;;;;;;;22.04;47.07;100722.63;5069735;28;20028;-74
2023/05/07 10:09:12;;;;;;;6.43;1.77;;;;;;;22.27;45.13;100728.59;5069590;28;20090;-74
2023/05/07 10:11:38;;;;;;;3.42;1.83;;;;;;;22.07;44.08;100663.00;5069489;28;20028;-72
2023/05/07 10:14:07;;;;;;;3.53;1.70;;;;;;;22.65;39.36;100725.69;5069543;28;20470;-76
2023/05/07 10:16:36;;;;;;;6.10;2.00;;;;;;;22.53;42.27;100705.59;5070094;28;20029;-74
2023/05/07 10:19:04;;;;;;;5.72;1.95;;;;;;;22.42;42.50;100687.31;5069130;28;20077;-71
2023/05/07 10:21:32;;;;;;;2.88;1.67;;;;;;;22.62;43.85;100730.09;5017597;28;20036;-73
2023/05/07 10:24:19;;;;;;;1.95;1.35;;;;;;;22.41;44.19;100732.91;5069625;28;20067;-72
2023/05/07 10:26:49;;;;;;;4.82;2.20;;;;;;;21.96;44.40;100610.50;5069541;28;20466;-72
2023/05/07 10:29:27;;;;;;;4.32;1.50;;;;;;;22.61;44.41;100730.97;5069953;28;20502;-72
2023/05/07 10:32:04;;;;;;;4.53;1.58;;;;;;;22.42;40.28;100718.88;5069594;28;20059;-72
2023/05/07 10:34:37;;;;;;;3.22;1.98;;;;;;;21.95;41.52;100657.81;5069491;28;20041;-76
2023/05/07 10:37:04;;;;;;;3.83;1.60;;;;;;;22.66;43.15;100725.66;5069449;28;20348;-72
2023/05/07 10:39:30;;;;;;;8.13;1.70;;;;;;;22.87;45.08;100711.44;5069415;28;20023;-73
2023/05/07 10:41:56;;;;;;;2.72;1.70;;;;;;;22.93;43.52;100679.78;5069793;28;20036;-72
2023/05/07 10:44:26;;;;;;;5.60;2.20;;;;;;;23.38;41.64;100720.59;5051113;28;20028;-73
2023/05/07 10:47:06;;;;;;;5.93;1.95;;;;;;;23.07;37.79;100649.78;5069686;28;20055;-74
2023/05/07 10:49:31;;;;;;;4.03;1.75;;;;;;;23.52;38.64;100704.59;5060166;28;20178;-72
2023/05/07 10:52:24;;;;;;;6.13;2.03;;;;;;;23.47;41.06;100709.91;5072881;28;20120;-73
2023/05/07 10:55:25;;;;;;;16.83;3.85;;;;;;;23.27;41.17;100665.38;5072709;28;20052;-72
2023/05/07 10:57:50;;;;;;;5.57;1.88;;;;;;;23.15;40.76;100699.72;5054947;28;21128;-76
2023/05/07 11:00:39;;;;;;;6.20;2.05;;;;;;;23.34;38.56;100695.13;5072839;28;20020;-74
2023/05/07 11:03:06;;;;;;;9.25;2.30;;;;;;;23.70;42.46;100695.56;5072808;28;20059;-73
2023/05/07 11:05:33;;;;;;;8.02;2.75;;;;;;;24.02;39.08;100691.63;5072462;28;20012;-71
2023/05/07 11:08:03;;;;;;;14.85;2.85;;;;;;;24.25;40.35;100695.66;5054653;28;20028;-74
2023/05/07 11:10:58;;;;;;;11.07;3.33;;;;;;;24.31;38.84;100699.09;5072634;28;20100;-73
2023/05/07 11:13:49;;;;;;;12.00;3.28;;;;;;;24.41;39.55;100698.91;5072720;28;20023;-73
2023/05/07 11:16:22;;;;;;;8.02;2.50;;;;;;;24.43;39.08;100684.78;5072646;28;20047;-73